.
WxDataArchive / Data Records for 2009-12-24
2009-12-23 December 2009 2009-12-25

Data Records for Thursday, 24 December 2009

Time	Temp	Chill	HIndex	Humid	Dewpt	 Wind 	HiWind	WindDir	Rain 	Barom 
-----	----	-----	------	-----	-----	------	------	-------	-----	----- 
00:00	27.9	21.3	27.9	79	22.2	6	13	90	0.00	30.270 
00:05	27.9	20.6	27.9	79	22.2	7	14	90	0.00	30.270 
00:10	27.9	22.3	27.9	79	22.2	5	12	90	0.00	30.270 
00:15	27.9	22.3	27.9	79	22.2	5	12	90	0.00	30.260 
00:20	27.8	20.4	27.8	79	22.2	7	15	90	0.00	30.260 
00:25	27.8	21.2	27.8	79	22.2	6	12	90	0.00	30.260 
00:30	27.8	20.4	27.8	79	22.2	7	13	90	0.00	30.262 
00:35	27.8	21.2	27.8	79	22.2	6	12	90	0.00	30.262 
00:40	27.6	21.9	27.6	79	22.0	5	12	90	0.00	30.262 
00:45	27.6	20.2	27.6	79	22.0	7	17	112	0.00	30.247 
00:50	27.6	21.0	27.6	79	22.0	6	13	112	0.00	30.247 
00:55	27.6	20.2	27.6	79	22.0	7	14	90	0.00	30.247 
01:00	27.6	21.9	27.6	79	22.0	5	10	112	0.00	30.260 
01:05	27.6	21.0	27.6	78	21.7	6	12	90	0.00	30.260 
01:10	27.6	21.9	27.6	78	21.7	5	12	112	0.00	30.260 
01:15	27.6	21.9	27.6	78	21.7	5	11	90	0.00	30.268 
01:20	27.6	21.9	27.6	79	22.0	5	10	90	0.00	30.268 
01:25	27.6	21.9	27.6	78	21.7	5	11	112	0.00	30.268 
01:30	27.5	21.8	27.5	79	21.9	5	11	112	0.00	30.266 
01:35	27.5	22.9	27.5	79	21.9	4	10	112	0.00	30.266 
01:40	27.3	20.6	27.3	78	21.4	6	16	112	0.00	30.266 
01:45	27.3	20.6	27.3	79	21.7	6	13	90	0.00	30.256 
01:50	27.2	20.5	27.2	78	21.3	6	15	90	0.00	30.256 
01:55	27.2	20.5	27.2	78	21.3	6	12	112	0.00	30.256 
02:00	27.2	19.7	27.2	78	21.3	7	14	90	0.00	30.270 
02:05	27.2	22.5	27.2	78	21.3	4	13	112	0.00	30.270 
02:10	27.2	20.5	27.2	78	21.3	6	12	90	0.00	30.270 
02:15	27.2	19.0	27.2	77	21.0	8	13	90	0.00	30.274 
02:20	27.0	22.3	27.0	77	20.8	4	13	112	0.00	30.274 
02:25	27.0	19.5	27.0	77	20.8	7	13	90	0.00	30.274 
02:30	27.0	20.3	27.0	77	20.8	6	11	90	0.00	30.284 
02:35	27.0	21.2	27.0	78	21.1	5	11	90	0.00	30.284 
02:40	26.9	21.1	26.9	77	20.7	5	10	90	0.00	30.284 
02:45	26.9	20.2	26.9	77	20.7	6	12	90	0.00	30.284 
02:50	26.9	21.1	26.9	77	20.7	5	11	90	0.00	30.284 
02:55	26.7	19.9	26.7	77	20.5	6	11	90	0.00	30.284 
03:00	26.7	20.9	26.7	77	20.5	5	13	90	0.00	30.290 
03:05	26.7	19.9	26.7	77	20.5	6	15	90	0.00	30.290 
03:10	26.6	19.8	26.6	77	20.4	6	12	112	0.00	30.290 
03:15	26.6	19.8	26.6	77	20.4	6	12	112	0.00	30.283 
03:20	26.4	18.7	26.4	77	20.2	7	13	112	0.00	30.283 
03:25	26.4	19.6	26.4	77	20.2	6	15	112	0.00	30.283 
03:30	26.3	19.4	26.3	77	20.1	6	16	90	0.00	30.278 
03:35	26.1	19.2	26.1	77	19.9	6	11	112	0.00	30.278 
03:40	26.1	19.2	26.1	77	19.9	6	12	112	0.00	30.278 
03:45	26.1	21.3	26.1	77	19.9	4	9	90	0.00	30.286 
03:50	26.0	19.1	26.0	77	19.8	6	11	90	0.00	30.286 
03:55	26.0	19.1	26.0	77	19.8	6	14	112	0.00	30.286 
04:00	26.0	19.1	26.0	77	19.8	6	14	112	0.00	30.283 
04:05	26.0	19.1	26.0	77	19.8	6	13	90	0.00	30.283 
04:10	25.8	18.0	25.8	77	19.6	7	14	90	0.00	30.283 
04:15	25.8	18.8	25.8	77	19.6	6	11	90	0.00	30.276 
04:20	25.8	18.8	25.8	77	19.6	6	12	112	0.00	30.276 
04:25	25.7	18.7	25.7	77	19.5	6	13	90	0.00	30.276 
04:30	25.7	19.7	25.7	77	19.5	5	12	90	0.00	30.269 
04:35	25.7	20.8	25.7	77	19.5	4	11	112	0.00	30.269 
04:40	25.7	18.7	25.7	77	19.5	6	15	90	0.00	30.269 
04:45	25.6	17.8	25.6	77	19.4	7	13	90	0.00	30.264 
04:50	25.6	17.8	25.6	77	19.4	7	13	90	0.00	30.264 
04:55	25.6	17.8	25.6	77	19.4	7	14	90	0.00	30.264 
05:00	25.6	19.6	25.6	77	19.4	5	12	112	0.00	30.257 
05:05	25.6	19.6	25.6	77	19.4	5	9	90	0.00	30.257 
05:10	25.6	18.6	25.6	77	19.4	6	13	90	0.00	30.257 
05:15	25.6	18.6	25.6	77	19.4	6	11	90	0.00	30.255 
05:20	25.6	17.8	25.6	77	19.4	7	12	90	0.00	30.255 
05:25	25.6	17.8	25.6	76	19.1	7	12	90	0.00	30.255 
05:30	25.6	19.6	25.6	76	19.1	5	11	90	0.00	30.259 
05:35	25.6	19.6	25.6	77	19.4	5	12	90	0.00	30.259 
05:40	25.6	19.6	25.6	77	19.4	5	11	90	0.00	30.259 
05:45	25.6	18.6	25.6	77	19.4	6	15	112	0.00	30.257 
05:50	25.6	19.6	25.6	77	19.4	5	12	112	0.00	30.257 
05:55	25.6	19.6	25.6	77	19.4	5	12	90	0.00	30.257 
06:00	25.6	19.6	25.6	77	19.4	5	12	112	0.00	30.270 
06:05	25.6	18.6	25.6	77	19.4	6	11	90	0.00	30.270 
06:10	25.7	19.7	25.7	77	19.5	5	12	90	0.00	30.270 
06:15	25.7	19.7	25.7	77	19.5	5	13	90	0.00	30.269 
06:20	25.6	18.6	25.6	76	19.1	6	14	112	0.00	30.269 
06:25	25.6	19.6	25.6	77	19.4	5	10	112	0.00	30.269 
06:30	25.6	19.6	25.6	77	19.4	5	12	90	0.00	30.266 
06:35	25.6	19.6	25.6	77	19.4	5	11	112	0.00	30.266 
06:40	25.6	18.6	25.6	77	19.4	6	12	90	0.00	30.266 
06:45	25.6	18.6	25.6	77	19.4	6	11	90	0.00	30.258 
06:50	25.6	18.6	25.6	77	19.4	6	12	90	0.00	30.258 
06:55	25.6	19.6	25.6	77	19.4	5	11	112	0.00	30.258 
07:00	25.6	18.6	25.6	77	19.4	6	12	112	0.00	30.251 
07:05	25.6	18.6	25.6	77	19.4	6	13	90	0.00	30.251 
07:10	25.6	19.6	25.6	77	19.4	5	12	90	0.00	30.251 
07:15	25.6	19.6	25.6	77	19.4	5	11	112	0.00	30.253 
07:20	25.6	18.6	25.6	77	19.4	6	14	90	0.00	30.253 
07:25	25.6	19.6	25.6	77	19.4	5	11	112	0.00	30.253 
07:30	25.6	19.6	25.6	77	19.4	5	10	112	0.00	30.254 
07:35	25.6	18.6	25.6	77	19.4	6	11	90	0.00	30.254 
07:40	25.6	19.6	25.6	77	19.4	5	12	90	0.00	30.254 
07:45	25.6	19.6	25.6	77	19.4	5	11	90	0.00	30.257 
07:50	25.6	19.6	25.6	77	19.4	5	11	90	0.00	30.257 
07:55	25.6	19.6	25.6	77	19.4	5	12	90	0.00	30.257 
08:00	25.6	20.7	25.6	77	19.4	4	9	112	0.00	30.259 
08:05	25.6	19.6	25.6	77	19.4	5	12	90	0.00	30.259 
08:10	25.6	19.6	25.6	77	19.4	5	11	112	0.00	30.259 
08:15	25.6	19.6	25.6	77	19.4	5	10	90	0.00	30.265 
08:20	25.6	20.7	25.6	77	19.4	4	9	112	0.00	30.265 
08:25	25.6	19.6	25.6	77	19.4	5	11	90	0.00	30.265 
08:30	25.6	19.6	25.6	77	19.4	5	12	90	0.00	30.260 
08:35	25.6	20.7	25.6	77	19.4	4	9	90	0.00	30.260 
08:40	25.7	18.7	25.7	77	19.5	6	12	90	0.00	30.260 
08:45	25.7	19.7	25.7	77	19.5	5	11	112	0.00	30.258 
08:50	25.7	19.7	25.7	76	19.2	5	12	112	0.00	30.258 
08:55	25.7	18.7	25.7	76	19.2	6	15	112	0.00	30.258 
09:00	25.7	19.7	25.7	76	19.2	5	10	90	0.00	30.267 
09:05	25.7	18.7	25.7	76	19.2	6	14	90	0.00	30.267 
09:10	25.8	20.9	25.8	76	19.3	4	10	90	0.00	30.267 
09:15	25.8	18.8	25.8	75	19.0	6	13	90	0.00	30.266 
09:20	25.8	18.0	25.8	75	19.0	7	12	90	0.00	30.266 
09:25	25.8	18.0	25.8	75	19.0	7	14	112	0.00	30.266 
09:30	25.8	18.8	25.8	75	19.0	6	11	90	0.00	30.259 
09:35	26.0	20.0	26.0	75	19.2	5	14	90	0.00	30.259 
09:40	26.0	20.0	26.0	75	19.2	5	11	90	0.00	30.259 
09:45	26.1	21.3	26.1	76	19.6	4	11	90	0.00	30.257 
09:50	26.3	21.5	26.3	77	20.1	4	11	112	0.00	30.257 
09:55	26.3	21.5	26.3	77	20.1	4	11	90	0.00	30.257 
10:00	26.3	26.3	26.3	78	20.4	3	9	90	0.00	30.255 
10:05	26.1	20.1	26.1	77	19.9	5	12	112	0.00	30.255 
10:10	26.1	26.1	26.1	78	20.2	3	10	112	0.00	30.255 
10:15	26.1	19.2	26.1	78	20.2	6	12	112	0.00	30.239 
10:20	26.1	18.4	26.1	79	20.5	7	13	90	0.00	30.239 
10:25	26.1	20.1	26.1	79	20.5	5	16	112	0.00	30.239 
10:30	26.1	19.2	26.1	78	20.2	6	16	112	0.00	30.230 
10:35	26.3	19.4	26.3	78	20.4	6	11	112	0.00	30.230 
10:40	26.3	19.4	26.3	77	20.1	6	13	112	0.00	30.230 
10:45	26.4	20.5	26.4	78	20.5	5	12	90	0.00	30.237 
10:50	26.6	21.8	26.6	78	20.7	4	10	90	0.00	30.237 
10:55	26.7	22.0	26.7	78	20.8	4	11	90	0.00	30.237 
11:00	26.9	21.1	26.9	77	20.7	5	12	90	0.00	30.223 
11:05	27.0	27.0	27.0	77	20.8	3	7	112	0.00	30.223 
11:10	27.0	21.2	27.0	77	20.8	5	12	90	0.00	30.223 
11:15	27.2	21.4	27.2	75	20.3	5	10	112	0.00	30.213 
11:20	27.2	22.5	27.2	75	20.3	4	9	90	0.00	30.213 
11:25	27.5	22.9	27.5	75	20.6	4	9	90	0.00	30.213 
11:30	27.8	27.8	27.8	75	20.9	3	10	90	0.00	30.223 
11:35	27.9	27.9	27.9	75	21.0	3	7	90	0.00	30.223 
11:40	28.1	22.5	28.1	73	20.6	5	10	90	0.00	30.223 
11:45	28.2	23.7	28.2	73	20.7	4	9	90	0.00	30.211 
11:50	28.2	21.7	28.2	72	20.4	6	11	90	0.00	30.211 
11:55	28.1	21.6	28.1	73	20.6	6	12	90	0.00	30.211 
12:00	28.1	21.6	28.1	73	20.6	6	12	112	0.00	30.188 
12:05	28.1	22.5	28.1	73	20.6	5	13	90	0.00	30.188 
12:10	27.9	21.3	27.9	73	20.4	6	13	90	0.00	30.188 
12:15	27.9	21.3	27.9	72	20.1	6	13	90	0.00	30.182 
12:20	27.8	20.4	27.8	72	20.0	7	15	112	0.00	30.182 
12:25	27.8	19.7	27.8	73	20.3	8	15	112	0.00	30.182 
12:30	27.9	21.3	27.9	73	20.4	6	15	112	0.00	30.176 
12:35	27.9	20.6	27.9	72	20.1	7	14	112	0.00	30.176 
12:40	28.1	20.8	28.1	72	20.3	7	13	112	0.00	30.176 
12:45	28.1	20.8	28.1	72	20.3	7	14	90	0.00	30.173 
12:50	28.2	21.7	28.2	73	20.7	6	12	90	0.00	30.173 
12:55	28.2	21.7	28.2	73	20.7	6	14	112	0.00	30.173 
13:00	28.4	22.8	28.4	73	20.9	5	12	90	0.00	30.170 
13:05	28.5	23.0	28.5	73	21.0	5	13	90	0.00	30.170 
13:10	28.5	21.3	28.5	73	21.0	7	14	112	0.00	30.170 
13:15	28.5	21.3	28.5	73	21.0	7	12	90	0.00	30.158 
13:20	28.7	22.3	28.7	73	21.2	6	10	90	0.00	30.158 
13:25	28.8	23.3	28.8	73	21.3	5	12	112	0.00	30.158 
13:30	29.0	23.6	29.0	73	21.4	5	14	90	0.00	30.155 
13:35	29.0	23.6	29.0	73	21.4	5	10	90	0.00	30.155 
13:40	29.1	23.7	29.1	72	21.2	5	12	90	0.00	30.155 
13:45	29.1	22.8	29.1	73	21.5	6	12	90	0.00	30.147 
13:50	29.1	23.7	29.1	72	21.2	5	12	112	0.00	30.147 
13:55	29.3	23.9	29.3	73	21.7	5	11	112	0.00	30.147 
14:00	29.3	23.9	29.3	73	21.7	5	12	90	0.00	30.133 
14:05	29.4	24.0	29.4	72	21.5	5	11	112	0.00	30.133 
14:10	29.5	29.5	29.5	73	21.9	3	10	112	0.00	30.133 
14:15	29.7	25.4	29.7	73	22.1	4	10	90	0.00	30.123 
14:20	29.8	29.8	29.8	73	22.2	3	7	90	0.00	30.123 
14:25	29.8	24.5	29.8	73	22.2	5	10	90	0.00	30.123 
14:30	30.0	24.7	30.0	73	22.4	5	11	90	0.00	30.114 
14:35	30.0	23.8	30.0	73	22.4	6	13	112	0.00	30.114 
14:40	29.8	23.6	29.8	73	22.2	6	12	112	0.00	30.114 
14:45	30.0	23.8	30.0	73	22.4	6	13	112	0.00	30.103 
14:50	30.0	23.8	30.0	73	22.4	6	13	112	0.00	30.103 
14:55	30.1	25.9	30.1	74	22.8	4	11	90	0.00	30.103 
15:00	30.1	24.8	30.1	73	22.5	5	14	112	0.00	30.101 
15:05	30.3	30.3	30.3	73	22.7	3	9	90	0.00	30.101 
15:10	30.4	26.2	30.4	73	22.8	4	16	112	0.00	30.101 
15:15	30.4	25.2	30.4	73	22.8	5	11	90	0.00	30.094 
15:20	30.6	30.6	30.6	74	23.3	3	9	135	0.00	30.094 
15:25	30.6	26.5	30.6	75	23.6	4	9	112	0.00	30.094 
15:30	30.6	30.6	30.6	75	23.6	3	6	112	0.00	30.093 
15:35	30.6	26.5	30.6	75	23.6	4	12	112	0.00	30.093 
15:40	30.4	26.2	30.4	76	23.8	4	10	112	0.00	30.093 
15:45	30.4	26.2	30.4	77	24.1	4	10	112	0.00	30.089 
15:50	30.4	26.2	30.4	77	24.1	4	12	112	0.00	30.089 
15:55	30.4	30.4	30.4	78	24.4	3	7	90	0.00	30.089 
16:00	30.4	24.3	30.4	78	24.4	6	15	112	0.00	30.081 
16:05	30.4	24.3	30.4	78	24.4	6	12	112	0.00	30.081 
16:10	30.4	30.4	30.4	79	24.7	3	10	112	0.00	30.081 
16:15	30.4	26.2	30.4	79	24.7	4	14	90	0.00	30.078 
16:20	30.4	25.2	30.4	80	25.0	5	13	112	0.00	30.078 
16:25	30.4	25.2	30.4	81	25.3	5	13	112	0.00	30.078 
16:30	30.4	25.2	30.4	81	25.3	5	13	90	0.00	30.061 
16:35	30.6	25.4	30.6	81	25.5	5	10	112	0.00	30.061 
16:40	30.6	25.4	30.6	80	25.2	5	11	112	0.00	30.061 
16:45	30.7	25.5	30.7	81	25.6	5	11	90	0.00	30.066 
16:50	30.7	24.7	30.7	81	25.6	6	13	90	0.00	30.066 
16:55	30.7	25.5	30.7	81	25.6	5	11	112	0.00	30.066 
17:00	30.7	25.5	30.7	81	25.6	5	11	90	0.00	30.062 
17:05	30.9	25.8	30.9	81	25.8	5	12	112	0.00	30.062 
17:10	31.0	26.9	31.0	81	25.9	4	11	112	0.00	30.062 
17:15	31.0	25.9	31.0	81	25.9	5	12	112	0.00	30.064 
17:20	31.0	25.9	31.0	81	25.9	5	13	112	0.00	30.064 
17:25	31.0	25.9	31.0	81	25.9	5	12	112	0.00	30.064 
17:30	31.2	26.1	31.2	82	26.4	5	10	90	0.00	30.062 
17:35	31.2	25.3	31.2	82	26.4	6	10	90	0.00	30.062 
17:40	31.2	25.3	31.2	82	26.4	6	14	90	0.00	30.062 
17:45	31.2	24.5	31.2	82	26.4	7	12	112	0.00	30.048 
17:50	31.2	25.3	31.2	82	26.4	6	11	112	0.00	30.048 
17:55	31.3	26.3	31.3	82	26.5	5	13	112	0.00	30.048 
18:00	31.3	25.4	31.3	81	26.2	6	12	90	0.00	30.048 
18:05	31.5	25.6	31.5	80	26.1	6	12	112	0.00	30.048 
18:10	31.5	25.6	31.5	81	26.4	6	16	112	0.00	30.048 
18:15	31.5	24.9	31.5	80	26.1	7	14	112	0.00	30.043 
18:20	31.5	25.6	31.5	80	26.1	6	14	90	0.00	30.043 
18:25	31.5	26.5	31.5	80	26.1	5	11	90	0.00	30.043 
18:30	31.6	25.8	31.6	80	26.2	6	12	90	0.00	30.044 
18:35	31.6	26.6	31.6	81	26.5	5	11	112	0.00	30.044 
18:40	31.6	25.8	31.6	81	26.5	6	12	90	0.00	30.044 
18:45	31.8	26.0	31.8	81	26.6	6	13	112	0.00	30.045 
18:50	31.9	26.1	31.9	81	26.7	6	11	90	0.00	30.045 
18:55	31.9	26.1	31.9	81	26.7	6	14	112	0.00	30.045 
19:00	31.9	26.1	31.9	81	26.7	6	15	112	0.00	30.041 
19:05	31.8	24.6	31.8	80	26.3	8	16	112	0.00	30.041 
19:10	31.8	25.3	31.8	80	26.3	7	16	90	0.00	30.041 
19:15	31.6	25.0	31.6	80	26.2	7	15	90	0.00	30.035 
19:20	31.6	25.0	31.6	81	26.5	7	13	90	0.00	30.035 
19:25	31.6	25.8	31.6	81	26.5	6	12	112	0.00	30.035 
19:30	31.6	25.0	31.6	80	26.2	7	13	90	0.00	30.028 
19:35	31.6	23.8	31.6	80	26.2	9	16	112	0.00	30.028 
19:40	31.8	24.6	31.8	80	26.3	8	16	90	0.00	30.028 
19:45	31.8	25.3	31.8	80	26.3	7	13	90	0.00	30.027 
19:50	31.8	25.3	31.8	80	26.3	7	11	112	0.00	30.027 
19:55	31.8	25.3	31.8	80	26.3	7	15	112	0.00	30.027 
20:00	31.8	25.3	31.8	80	26.3	7	13	112	0.00	30.027 
20:05	31.8	25.3	31.8	80	26.3	7	14	90	0.00	30.027 
20:10	31.9	24.7	31.9	80	26.4	8	14	90	0.00	30.027 
20:15	31.9	25.4	31.9	80	26.4	7	14	90	0.00	30.016 
20:20	31.9	26.1	31.9	80	26.4	6	15	90	0.00	30.016 
20:25	31.9	26.1	31.9	80	26.4	6	14	90	0.00	30.016 
20:30	31.9	26.1	31.9	80	26.4	6	13	90	0.00	30.017 
20:35	32.1	26.3	32.1	80	26.6	6	13	90	0.00	30.017 
20:40	32.2	27.3	32.2	80	26.7	5	11	112	0.00	30.017 
20:45	32.4	26.7	32.4	80	26.9	6	12	90	0.00	30.016 
20:50	32.4	26.0	32.4	79	26.6	7	12	90	0.00	30.016 
20:55	32.4	27.5	32.4	79	26.6	5	12	112	0.00	30.016 
21:00	32.4	26.7	32.4	79	26.6	6	11	90	0.00	30.006 
21:05	32.5	26.8	32.5	79	26.7	6	13	112	0.00	30.006 
21:10	32.5	27.7	32.5	79	26.7	5	12	112	0.00	30.006 
21:15	32.5	27.7	32.5	78	26.4	5	13	90	0.00	29.996 
21:20	32.5	26.8	32.5	78	26.4	6	11	90	0.00	29.996 
21:25	32.5	27.7	32.5	78	26.4	5	11	112	0.00	29.996 
21:30	32.7	26.3	32.7	78	26.6	7	13	112	0.00	29.986 
21:35	32.7	27.1	32.7	78	26.6	6	14	90	0.00	29.986 
21:40	32.7	27.1	32.7	78	26.6	6	15	90	0.00	29.986 
21:45	32.7	27.9	32.7	78	26.6	5	12	90	0.00	29.982 
21:50	32.8	28.0	32.8	77	26.4	5	12	90	0.00	29.982 
21:55	32.8	27.2	32.8	77	26.4	6	14	112	0.00	29.982 
22:00	32.9	27.3	32.9	77	26.5	6	12	112	0.00	29.965 
22:05	33.1	27.5	33.1	77	26.7	6	15	90	0.00	29.965 
22:10	33.1	27.5	33.1	77	26.7	6	19	112	0.00	29.965 
22:15	33.2	27.7	33.2	77	26.8	6	12	112	0.00	29.952 
22:20	33.5	27.3	33.5	76	26.8	7	12	90	0.00	29.952 
22:25	33.7	28.3	33.7	76	27.0	6	11	112	0.00	29.952 
22:30	33.8	28.4	33.8	75	26.7	6	15	112	0.00	29.934 
22:35	34.0	30.4	34.0	75	26.9	4	14	112	0.00	29.934 
22:40	34.3	29.0	34.3	74	26.9	6	15	90	0.00	29.934 
22:45	34.4	29.1	34.4	73	26.7	6	11	90	0.00	29.933 
22:50	34.7	29.4	34.7	73	26.9	6	14	90	0.00	29.933 
22:55	34.9	29.7	34.9	72	26.8	6	14	90	0.00	29.933 
23:00	34.9	29.0	34.9	72	26.8	7	16	90	0.00	29.934 
23:05	34.9	29.7	34.9	72	26.8	6	13	112	0.00	29.934 
23:10	34.9	30.5	34.9	73	27.1	5	10	112	0.00	29.934 
23:15	34.9	29.7	34.9	73	27.1	6	13	90	0.00	29.917 
23:20	34.9	29.0	34.9	73	27.1	7	14	112	0.00	29.917 
23:25	34.9	29.0	34.9	73	27.1	7	13	90	0.00	29.917 
23:30	34.9	29.0	34.9	73	27.1	7	15	112	0.00	29.911 
23:35	35.0	29.8	35.0	73	27.2	6	16	112	0.00	29.911 
23:40	35.0	29.8	35.0	73	27.2	6	13	112	0.00	29.911 
23:45	35.2	29.4	35.2	72	27.1	7	14	90	0.00	29.912 
23:50	35.0	30.6	35.0	73	27.2	5	10	90	0.00	29.912 
23:55	34.9	29.7	34.9	73	27.1	6	12	112	0.00	29.912 

CoCoRaHS
IN-AL-39
A2 Web Hosting
Creative Commons License
GoDaddy
search engine by freefind advanced

loaded 2018-11-15 15:39:36 • last modified 2010-11-18 10:43:29
Privacy PolicyDisclaimer
• wx.awcolley.com is powered by PmWiki v.2002016 •
• all content (unless otherwise noted) © 2018 A W Colley